Time;durP1;ratioP1;P1;durP2;ratioP2;P2;SDS_P1;SDS_P2;PMS_P1;PMS_P2;Temp;Humidity;BMP_temperature;BMP_pressure;BME280_temperature;BME280_humidity;BME280_pressure;Samples;Min_cycle;Max_cycle;Signal;HPM_P1;HPM_P2
2022/03/26 00:01:21;;;;;;;44.30;17.83;;;;;;;5.01;64.90;100068.47;5050417;28;20477;-86
2022/03/26 00:03:48;;;;;;;40.17;17.98;;;;;;;4.79;65.13;100056.78;5051176;28;20055;-84
2022/03/26 00:06:15;;;;;;;37.38;17.00;;;;;;;4.88;64.74;100076.72;5063618;28;20051;-84
2022/03/26 00:08:41;;;;;;;36.20;17.80;;;;;;;4.88;65.38;100071.34;5072916;28;20082;-85
2022/03/26 00:11:08;;;;;;;39.63;18.48;;;;;;;4.74;65.16;100058.97;5057235;28;20576;-85
2022/03/26 00:13:36;;;;;;;39.15;18.52;;;;;;;4.79;65.51;100071.09;5058854;28;20237;-85
2022/03/26 00:16:03;;;;;;;36.00;16.85;;;;;;;4.86;66.86;100073.28;5060236;28;20045;-85
2022/03/26 00:18:30;;;;;;;34.90;17.48;;;;;;;4.73;68.24;100085.06;5063295;28;20049;-85
2022/03/26 00:20:56;;;;;;;38.90;16.30;;;;;;;4.57;69.70;100090.81;5075889;28;20071;-85
2022/03/26 00:23:23;;;;;;;37.25;18.67;;;;;;;4.57;70.51;100106.97;5075172;28;20446;-85
2022/03/26 00:25:49;;;;;;;38.88;17.02;;;;;;;4.52;70.87;100102.97;5058500;28;20795;-85
2022/03/26 00:28:16;;;;;;;40.85;18.27;;;;;;;4.44;70.03;100084.72;5057729;28;20041;-85
2022/03/26 00:30:45;;;;;;;50.53;19.70;;;;;;;4.55;69.22;100097.34;5068961;28;20122;-84
2022/03/26 00:33:11;;;;;;;43.95;18.65;;;;;;;4.55;69.04;100090.09;5070939;28;20051;-85
2022/03/26 00:35:38;;;;;;;37.15;19.02;;;;;;;4.56;68.30;100091.81;5071573;28;20056;-85
2022/03/26 00:38:07;;;;;;;45.22;19.23;;;;;;;4.65;68.07;100105.50;5075910;28;20387;-85
2022/03/26 00:40:34;;;;;;;37.28;18.73;;;;;;;4.48;68.72;100070.03;5063839;28;20051;-85
2022/03/26 00:43:01;;;;;;;42.83;19.45;;;;;;;4.48;69.31;100086.19;5075239;28;20444;-85
2022/03/26 00:45:29;;;;;;;42.95;19.02;;;;;;;4.37;68.38;100081.66;5058381;28;20613;-85
2022/03/26 00:47:57;;;;;;;46.70;19.02;;;;;;;4.34;69.42;100091.84;5055224;28;20052;-84
2022/03/26 00:50:24;;;;;;;39.95;18.38;;;;;;;4.38;70.23;100091.47;5070377;28;20144;-85
2022/03/26 00:52:51;;;;;;;41.05;17.60;;;;;;;4.29;70.02;100105.66;5074428;28;20083;-85
2022/03/26 00:55:18;;;;;;;35.28;18.52;;;;;;;4.03;71.22;100086.16;5074771;28;20052;-85
2022/03/26 00:57:44;;;;;;;40.35;17.80;;;;;;;3.92;71.13;100076.25;5075675;28;20051;-85
2022/03/26 01:00:13;;;;;;;40.15;18.15;;;;;;;3.83;71.41;100064.38;5062269;28;20051;-85
2022/03/26 01:02:40;;;;;;;45.38;19.00;;;;;;;3.82;70.98;100062.66;5054646;28;20485;-85
2022/03/26 01:05:10;;;;;;;39.40;19.17;;;;;;;3.88;70.89;100085.53;5055558;28;20059;-85
2022/03/26 01:07:37;;;;;;;42.03;17.83;;;;;;;3.85;71.18;100091.16;5068197;28;20476;-85
2022/03/26 01:10:06;;;;;;;41.78;19.05;;;;;;;3.80;70.96;100099.56;5063550;28;20132;-85
2022/03/26 01:12:34;;;;;;;40.13;19.15;;;;;;;3.79;72.71;100075.50;5055117;28;20057;-85
2022/03/26 01:15:00;;;;;;;41.72;17.67;;;;;;;3.64;75.89;100090.97;5054981;28;20063;-85
2022/03/26 01:17:27;;;;;;;42.38;18.75;;;;;;;3.75;76.71;100093.72;5055033;28;20493;-85
2022/03/26 01:19:54;;;;;;;39.83;17.40;;;;;;;3.40;78.94;100067.66;5054896;28;20056;-85
2022/03/26 01:22:22;;;;;;;37.63;17.38;;;;;;;3.44;79.32;100079.91;5054863;28;20049;-85
2022/03/26 01:24:49;;;;;;;36.15;17.08;;;;;;;3.41;78.88;100090.06;5073437;28;20506;-85
2022/03/26 01:27:15;;;;;;;35.85;16.95;;;;;;;3.19;77.81;100067.47;5074814;28;20393;-85
2022/03/26 01:29:42;;;;;;;34.45;17.17;;;;;;;3.43;78.00;100088.09;5075626;28;20064;-85
2022/03/26 01:32:10;;;;;;;39.33;17.77;;;;;;;3.25;79.09;100076.91;5067164;28;20103;-85
2022/03/26 01:34:37;;;;;;;37.38;16.20;;;;;;;3.26;79.82;100073.25;5069669;28;20044;-85
2022/03/26 01:37:04;;;;;;;34.90;17.05;;;;;;;3.23;79.27;100090.44;5091676;28;20105;-84
2022/03/26 01:39:33;;;;;;;38.33;17.45;;;;;;;3.17;79.53;100096.28;5083534;28;20134;-85
2022/03/26 01:42:04;;;;;;;35.10;18.45;;;;;;;3.10;80.21;100079.78;5092693;28;20408;-84
2022/03/26 01:44:30;;;;;;;39.72;17.73;;;;;;;3.01;79.53;100081.31;5091354;28;20071;-84
2022/03/26 01:46:59;;;;;;;32.30;17.92;;;;;;;3.14;79.43;100097.38;5090072;28;20052;-85
2022/03/26 01:49:26;;;;;;;32.25;16.02;;;;;;;3.11;79.35;100102.97;5082072;28;20101;-85
2022/03/26 01:51:53;;;;;;;37.53;17.70;;;;;;;2.85;81.87;100069.16;5085146;28;20100;-85
2022/03/26 01:54:20;;;;;;;38.83;17.67;;;;;;;2.84;80.88;100062.91;5080895;28;20076;-84
2022/03/26 01:56:49;;;;;;;41.25;18.27;;;;;;;2.93;79.86;100080.16;5062597;28;20049;-85
2022/03/26 01:59:32;;;;;;;35.70;16.42;;;;;;;2.95;79.42;100087.16;5066904;28;20124;-85
2022/03/26 02:01:58;;;;;;;37.78;17.63;;;;;;;2.79;80.46;100073.97;5059408;28;20049;-85
2022/03/26 02:04:26;;;;;;;35.83;18.10;;;;;;;2.76;83.25;100062.63;5079771;28;20120;-84
2022/03/26 02:06:53;;;;;;;35.45;16.90;;;;;;;2.78;86.26;100096.44;5066660;28;20477;-84
2022/03/26 02:09:20;;;;;;;40.65;17.67;;;;;;;2.62;84.90;100064.47;5059321;28;20055;-84
2022/03/26 02:11:48;;;;;;;38.10;18.20;;;;;;;2.76;83.33;100073.38;5059642;28;20048;-84
2022/03/26 02:14:16;;;;;;;41.17;17.05;;;;;;;2.64;83.83;100059.00;5070209;28;20136;-84
2022/03/26 02:16:44;;;;;;;34.42;17.50;;;;;;;2.78;83.34;100084.84;5061848;28;20140;-84
2022/03/26 02:19:11;;;;;;;37.88;18.65;;;;;;;2.73;82.54;100070.91;5054390;28;20041;-84
2022/03/26 02:21:39;;;;;;;41.55;18.58;;;;;;;2.75;83.16;100085.06;5052640;28;20076;-84
2022/03/26 02:24:08;;;;;;;54.10;17.38;;;;;;;2.62;85.35;100077.03;5054928;28;20135;-84
2022/03/26 02:26:35;;;;;;;36.03;17.70;;;;;;;2.64;84.70;100091.22;5054027;28;20056;-83
2022/03/26 02:29:07;;;;;;;35.38;16.42;;;;;;;2.52;84.79;100067.97;5071648;28;20133;-84
2022/03/26 02:31:34;;;;;;;36.88;18.23;;;;;;;2.56;85.31;100086.41;5060490;28;20400;-84
2022/03/26 02:34:01;;;;;;;36.15;17.17;;;;;;;2.48;85.18;100070.88;5054150;28;20128;-84
2022/03/26 02:36:27;;;;;;;36.00;17.60;;;;;;;2.50;84.82;100084.19;5055378;28;20045;-84
2022/03/26 02:38:55;;;;;;;34.22;15.98;;;;;;;2.52;85.70;100090.28;5054800;28;20063;-84
2022/03/26 02:41:22;;;;;;;34.30;16.90;;;;;;;2.39;86.75;100087.59;5053399;28;20472;-84
2022/03/26 02:43:49;;;;;;;36.05;16.42;;;;;;;2.35;87.91;100071.84;5053094;28;20060;-85
2022/03/26 02:46:16;;;;;;;49.17;16.92;;;;;;;2.23;87.15;100063.72;5066015;28;20048;-84
2022/03/26 02:48:44;;;;;;;34.22;16.33;;;;;;;2.35;87.05;100075.41;5073331;28;20135;-85
2022/03/26 02:51:11;;;;;;;38.45;16.35;;;;;;;2.50;86.53;100067.19;5053555;28;20472;-85
2022/03/26 02:53:37;;;;;;;39.17;17.13;;;;;;;2.37;88.03;100061.88;5054573;28;20144;-84
2022/03/26 02:56:05;;;;;;;33.25;16.23;;;;;;;2.27;88.89;100067.91;5057032;28;20052;-85
2022/03/26 02:58:32;;;;;;;32.85;17.20;;;;;;;2.21;89.31;100071.00;5073555;28;20052;-85
2022/03/26 03:00:59;;;;;;;37.80;17.40;;;;;;;2.07;89.79;100055.88;5071379;28;20048;-85
2022/03/26 03:03:25;;;;;;;37.97;17.08;;;;;;;2.05;88.86;100046.25;5068533;28;20068;-84
2022/03/26 03:05:52;;;;;;;34.97;17.08;;;;;;;2.10;88.98;100065.53;5060630;28;20077;-84
2022/03/26 03:08:19;;;;;;;39.47;17.55;;;;;;;2.01;88.20;100064.38;5063019;28;20041;-84
2022/03/26 03:10:45;;;;;;;34.88;16.95;;;;;;;1.81;88.73;100040.75;5073445;28;20080;-84
2022/03/26 03:13:13;;;;;;;36.00;16.45;;;;;;;1.98;88.50;100078.00;5068382;28;20048;-84
2022/03/26 03:15:40;;;;;;;41.47;17.15;;;;;;;1.86;88.47;100060.09;5063135;28;20147;-84
2022/03/26 03:18:07;;;;;;;45.78;17.73;;;;;;;1.83;89.00;100066.50;5052607;28;20495;-84
2022/03/26 03:20:34;;;;;;;37.63;17.95;;;;;;;1.83;88.01;100052.25;5060083;28;20045;-85
2022/03/26 03:23:00;;;;;;;35.70;14.93;;;;;;;1.97;88.27;100072.72;5064631;28;20495;-85
2022/03/26 03:25:29;;;;;;;41.80;17.77;;;;;;;1.88;89.04;100069.75;5067734;28;20570;-85
2022/03/26 03:27:56;;;;;;;32.58;15.32;;;;;;;1.69;88.94;100050.53;5065124;28;20052;-85
2022/03/26 03:30:24;;;;;;;33.72;16.00;;;;;;;1.85;91.16;100074.44;5052589;28;20496;-85
2022/03/26 03:32:51;;;;;;;41.28;17.50;;;;;;;1.75;91.53;100060.84;5065000;28;20047;-85
2022/03/26 03:35:18;;;;;;;32.72;16.90;;;;;;;1.93;90.84;100083.69;5069087;28;20051;-85
2022/03/26 03:37:45;;;;;;;36.13;17.13;;;;;;;1.79;90.62;100073.03;5067369;28;20091;-85
2022/03/26 03:40:13;;;;;;;31.75;16.23;;;;;;;1.70;90.70;100057.59;5070146;28;20045;-85
2022/03/26 03:42:40;;;;;;;34.22;15.98;;;;;;;1.75;90.97;100071.56;5070619;28;20068;-84
2022/03/26 03:45:09;;;;;;;34.63;15.98;;;;;;;1.47;91.30;100041.28;5057381;28;20077;-85
2022/03/26 03:47:37;;;;;;;34.55;15.13;;;;;;;1.52;92.33;100062.41;5076789;28;20059;-84
2022/03/26 03:50:04;;;;;;;34.15;16.73;;;;;;;1.40;93.11;100054.25;5069265;28;20069;-85
2022/03/26 03:52:31;;;;;;;35.70;15.70;;;;;;;1.45;92.67;100058.44;5068842;28;20054;-84
2022/03/26 03:54:58;;;;;;;32.90;15.95;;;;;;;1.40;92.36;100050.69;5057129;28;20139;-84
2022/03/26 03:57:24;;;;;;;31.60;15.63;;;;;;;1.46;92.63;100081.59;5056142;28;20059;-85
2022/03/26 03:59:52;;;;;;;31.02;16.45;;;;;;;1.16;93.86;100047.84;5071682;28;20070;-84
2022/03/26 04:02:19;;;;;;;33.40;14.65;;;;;;;1.16;94.36;100064.81;5075387;28;20044;-84
2022/03/26 04:04:46;;;;;;;32.83;14.75;;;;;;;1.20;94.83;100062.78;5074582;28;20055;-84
2022/03/26 04:07:13;;;;;;;41.95;16.02;;;;;;;1.14;95.00;100058.69;5071256;28;20079;-84
2022/03/26 04:09:40;;;;;;;33.58;16.23;;;;;;;1.30;94.08;100071.06;5069797;28;20059;-85
2022/03/26 04:12:08;;;;;;;32.50;17.20;;;;;;;1.23;94.31;100059.88;5055513;28;20045;-85
2022/03/26 04:14:35;;;;;;;40.33;18.52;;;;;;;1.24;94.16;100075.84;5068929;28;20055;-85
2022/03/26 04:17:02;;;;;;;37.58;15.50;;;;;;;1.28;93.53;100072.97;5069190;28;20127;-84
2022/03/26 04:19:29;;;;;;;34.35;15.80;;;;;;;1.23;93.33;100075.94;5058748;28;20059;-84
2022/03/26 04:21:57;;;;;;;36.13;16.42;;;;;;;1.04;93.88;100057.59;5065166;28;20087;-84
2022/03/26 04:24:24;;;;;;;34.10;15.80;;;;;;;0.92;94.29;100059.25;5058877;28;20132;-85
2022/03/26 04:26:51;;;;;;;38.47;16.45;;;;;;;1.14;94.12;100077.41;5069908;28;20127;-84
2022/03/26 04:29:18;;;;;;;32.58;14.98;;;;;;;1.06;94.04;100061.88;5075199;28;20392;-86
2022/03/26 04:31:45;;;;;;;28.30;16.20;;;;;;;0.89;94.46;100067.50;5072150;28;20080;-83
2022/03/26 04:34:12;;;;;;;27.05;15.88;;;;;;;0.74;95.45;100066.69;5055212;28;20139;-83
2022/03/26 04:36:39;;;;;;;32.15;15.88;;;;;;;0.72;95.70;100078.44;5056109;28;20056;-84
2022/03/26 04:39:07;;;;;;;42.70;17.80;;;;;;;0.67;94.95;100066.22;5062254;28;20049;-84
2022/03/26 04:41:34;;;;;;;36.08;17.65;;;;;;;0.80;94.96;100087.69;5056788;28;20049;-85
2022/03/26 04:44:00;;;;;;;35.83;16.70;;;;;;;0.77;95.35;100079.88;5074901;28;20056;-84
2022/03/26 04:46:27;;;;;;;36.38;16.08;;;;;;;0.83;94.87;100081.28;5076128;28;20139;-84
2022/03/26 04:48:54;;;;;;;43.65;17.33;;;;;;;0.65;94.93;100065.47;5075121;28;20045;-84
2022/03/26 04:51:21;;;;;;;28.58;15.43;;;;;;;0.70;95.48;100073.19;5065329;28;20063;-84
2022/03/26 04:53:48;;;;;;;33.33;15.68;;;;;;;0.90;94.53;100092.44;5054936;28;20133;-84
2022/03/26 04:56:16;;;;;;;27.90;15.10;;;;;;;0.73;94.30;100064.09;5055835;28;20148;-84
2022/03/26 04:58:43;;;;;;;33.75;15.77;;;;;;;0.81;94.24;100092.09;5063358;28;20127;-84
2022/03/26 05:01:09;;;;;;;40.33;18.08;;;;;;;0.77;94.01;100095.94;5066687;28;20484;-84
2022/03/26 05:03:36;;;;;;;34.13;15.50;;;;;;;0.70;94.57;100092.78;5055093;28;20044;-84
2022/03/26 05:06:03;;;;;;;35.33;15.90;;;;;;;0.59;95.43;100094.41;5055716;28;20154;-84
2022/03/26 05:08:29;;;;;;;34.35;15.80;;;;;;;0.61;96.29;100105.91;5055411;28;20053;-84
2022/03/26 05:10:56;;;;;;;35.83;16.35;;;;;;;0.43;95.29;100073.16;5070889;28;20053;-84
2022/03/26 05:13:24;;;;;;;31.50;15.90;;;;;;;0.47;95.28;100094.25;5055930;28;20053;-84
2022/03/26 05:15:51;;;;;;;41.80;16.45;;;;;;;0.57;95.41;100094.50;5067408;28;20051;-82
2022/03/26 05:18:18;;;;;;;35.42;15.18;;;;;;;0.68;95.16;100105.41;5064826;28;20041;-84
2022/03/26 05:20:48;;;;;;;44.40;16.15;;;;;;;0.51;95.05;100079.72;5055787;28;20057;-85
2022/03/26 05:23:14;;;;;;;35.50;15.35;;;;;;;0.53;95.69;100101.88;5055500;28;20045;-80
2022/03/26 05:25:41;;;;;;;32.40;15.33;;;;;;;0.57;96.10;100121.28;5074101;28;20113;-80
2022/03/26 05:28:07;;;;;;;33.78;16.25;;;;;;;0.32;97.16;100090.72;5065485;28;20048;-81
2022/03/26 05:30:36;;;;;;;32.25;15.60;;;;;;;0.49;96.82;100102.19;5067883;28;20454;-86
2022/03/26 05:33:03;;;;;;;36.47;14.83;;;;;;;0.46;97.77;100105.91;5067069;28;20503;-86
2022/03/26 05:35:29;;;;;;;38.22;16.13;;;;;;;0.54;96.84;100121.47;5068199;28;20127;-87
2022/03/26 05:37:59;;;;;;;39.58;16.48;;;;;;;0.64;96.18;100111.06;5064121;28;20197;-86
2022/03/26 05:40:29;;;;;;;36.45;15.88;;;;;;;0.69;96.52;100120.50;5059608;28;20049;-86
2022/03/26 05:42:56;;;;;;;30.67;15.02;;;;;;;0.63;95.92;100117.34;5055879;28;20048;-86
2022/03/26 05:45:23;;;;;;;30.85;13.82;;;;;;;0.58;96.35;100117.66;5058398;28;20091;-86
2022/03/26 05:47:56;;;;;;;32.40;15.23;;;;;;;0.40;96.64;100090.25;5052935;28;20048;-86
2022/03/26 05:50:23;;;;;;;34.05;13.88;;;;;;;0.48;97.03;100104.00;5065135;28;20087;-86
2022/03/26 05:52:53;;;;;;;31.45;15.85;;;;;;;0.62;96.58;100123.69;5053020;28;20451;-86
2022/03/26 05:55:22;;;;;;;36.45;15.38;;;;;;;0.52;97.54;100118.88;5061154;28;20063;-86
2022/03/26 05:57:51;;;;;;;32.50;15.63;;;;;;;0.62;97.12;100126.34;5053541;28;20052;-86
2022/03/26 06:00:22;;;;;;;34.00;15.52;;;;;;;0.75;96.96;100121.06;5056359;28;20084;-86
2022/03/26 06:02:51;;;;;;;31.47;14.53;;;;;;;0.72;97.11;100126.63;5068410;28;20060;-86
2022/03/26 06:05:17;;;;;;;34.10;15.73;;;;;;;0.72;97.36;100131.97;5069648;28;20278;-86
2022/03/26 06:07:47;;;;;;;37.15;16.88;;;;;;;0.96;97.41;100141.09;5071968;28;20147;-85
2022/03/26 06:10:14;;;;;;;;;;;;;;;1.29;95.58;100161.28;5064552;28;20045;-85
2022/03/26 06:12:47;;;;;;;34.30;15.52;;;;;;;1.68;92.53;100156.03;5072800;28;19921;-85
2022/03/26 06:15:14;;;;;;;34.97;17.00;;;;;;;1.94;91.14;100171.22;5058782;28;20043;-85
2022/03/26 06:17:40;;;;;;;34.13;17.35;;;;;;;1.99;88.69;100137.84;5072414;28;20114;-86
2022/03/26 06:20:10;;;;;;;35.47;16.35;;;;;;;2.20;88.05;100154.28;5053623;28;20080;-86
2022/03/26 06:22:36;;;;;;;37.88;16.00;;;;;;;2.38;88.06;100163.75;5049560;28;20415;-86
2022/03/26 06:25:05;;;;;;;29.10;15.48;;;;;;;2.61;86.76;100166.63;5066967;28;20182;-86
2022/03/26 06:31:06;;;;;;;32.40;15.55;;;;;;;3.17;83.77;100176.91;5047713;28;20099;-86
2022/03/26 06:33:33;;;;;;;37.13;16.17;;;;;;;3.14;82.99;100153.78;5052701;28;20063;-86
2022/03/26 06:36:01;;;;;;;37.42;14.77;;;;;;;3.29;83.01;100176.00;5051771;28;20044;-85
2022/03/26 06:38:31;;;;;;;37.90;16.73;;;;;;;3.44;82.47;100184.75;5053706;28;20132;-86
2022/03/26 06:40:57;;;;;;;;;;;;;;;3.50;82.41;100186.13;5069183;28;20079;-86
2022/03/26 06:43:24;;;;;;;30.08;14.88;;;;;;;3.53;80.76;100173.31;5068472;28;20011;-85
2022/03/26 06:45:51;;;;;;;38.13;16.45;;;;;;;3.54;81.38;100168.81;5061527;28;20072;-85
2022/03/26 06:48:18;;;;;;;38.53;16.42;;;;;;;3.71;82.50;100183.66;5070656;28;20056;-85
2022/03/26 06:50:47;;;;;;;30.38;15.57;;;;;;;3.80;81.44;100156.06;5065056;28;20046;-85
2022/03/26 06:53:15;;;;;;;36.73;16.63;;;;;;;4.14;80.33;100180.38;5051715;28;20085;-85
2022/03/26 06:55:42;;;;;;;36.22;16.08;;;;;;;4.41;78.72;100165.72;5065121;28;20305;-86
2022/03/26 06:58:09;;;;;;;35.13;16.95;;;;;;;4.59;77.21;100168.81;5064902;28;20452;-86
2022/03/26 07:00:36;;;;;;;38.80;16.48;;;;;;;4.82;75.46;100168.81;5070822;28;20504;-86
2022/03/26 07:03:03;;;;;;;42.88;16.02;;;;;;;4.94;73.23;100155.22;5051201;28;20412;-86
2022/03/26 07:05:30;;;;;;;35.33;17.13;;;;;;;5.15;72.83;100157.16;5061166;28;20051;-86
2022/03/26 07:07:57;;;;;;;42.85;15.52;;;;;;;5.25;72.11;100152.69;5054602;28;20045;-86
2022/03/26 07:10:31;;;;;;;40.25;15.93;;;;;;;5.53;71.88;100174.69;5071064;28;20047;-85
2022/03/26 07:12:58;;;;;;;35.22;16.98;;;;;;;5.44;72.57;100164.66;5076593;28;20055;-86
2022/03/26 07:15:24;;;;;;;29.50;15.25;;;;;;;5.65;71.13;100162.88;5059374;28;20114;-86
2022/03/26 07:17:51;;;;;;;34.47;14.45;;;;;;;5.88;70.44;100187.06;5052921;28;20139;-85
2022/03/26 07:20:18;;;;;;;33.63;16.40;;;;;;;5.80;69.08;100174.22;5052427;28;20049;-86
2022/03/26 07:22:45;;;;;;;30.27;14.05;;;;;;;5.87;69.20;100185.31;5060395;28;20411;-86
2022/03/26 07:25:12;;;;;;;34.50;14.90;;;;;;;6.10;67.47;100182.59;5069437;28;20051;-86
2022/03/26 07:27:41;;;;;;;30.88;15.02;;;;;;;6.05;66.58;100165.91;5067900;28;20048;-86
2022/03/26 07:30:09;;;;;;;33.17;15.35;;;;;;;6.12;66.09;100186.00;5052434;28;20048;-85
2022/03/26 07:32:36;;;;;;;33.10;13.90;;;;;;;6.18;66.35;100186.31;5051088;28;20054;-85
2022/03/26 07:35:04;;;;;;;31.85;15.23;;;;;;;6.35;66.19;100184.88;5052427;28;20118;-85
2022/03/26 07:37:31;;;;;;;36.08;15.63;;;;;;;6.44;66.25;100188.59;5053003;28;20049;-86
2022/03/26 07:39:58;;;;;;;31.00;14.95;;;;;;;6.42;65.15;100162.75;5052890;28;20056;-86
2022/03/26 07:42:24;;;;;;;33.03;15.25;;;;;;;6.80;65.84;100193.63;5066287;28;20075;-86
2022/03/26 07:44:52;;;;;;;32.28;15.27;;;;;;;6.75;64.74;100168.88;5066525;28;20059;-86
2022/03/26 07:47:19;;;;;;;38.25;14.90;;;;;;;6.78;64.54;100179.41;5072334;28;20076;-86
2022/03/26 07:49:46;;;;;;;37.65;14.57;;;;;;;6.81;64.37;100171.88;5064286;28;20416;-86
2022/03/26 07:52:12;;;;;;;35.92;14.77;;;;;;;7.02;64.26;100181.78;5072143;28;20053;-86
2022/03/26 07:54:41;;;;;;;35.53;15.63;;;;;;;7.13;63.84;100197.03;5073414;28;20049;-86
2022/03/26 07:57:08;;;;;;;28.33;13.93;;;;;;;7.23;63.88;100187.94;5067688;28;20052;-86
2022/03/26 07:59:34;;;;;;;26.00;13.52;;;;;;;7.25;63.46;100182.41;5058945;28;20053;-87
2022/03/26 08:02:06;;;;;;;38.92;14.70;;;;;;;7.40;63.11;100190.97;5052142;28;20567;-86
2022/03/26 08:04:35;;;;;;;42.50;15.48;;;;;;;7.44;63.21;100201.38;5055960;28;20072;-86
2022/03/26 08:07:01;;;;;;;39.00;14.23;;;;;;;7.62;62.53;100206.97;5052667;28;20075;-84
2022/03/26 08:09:28;;;;;;;30.73;14.90;;;;;;;7.78;62.81;100206.44;5061806;28;20049;-86
2022/03/26 08:11:55;;;;;;;31.35;13.93;;;;;;;7.80;63.25;100200.88;5052533;28;20369;-86
2022/03/26 08:14:21;;;;;;;34.92;15.90;;;;;;;7.81;61.83;100186.31;5055231;28;20049;-86
2022/03/26 08:16:48;;;;;;;34.70;15.10;;;;;;;8.00;63.37;100193.59;5054008;28;20076;-86
2022/03/26 08:19:17;;;;;;;31.85;14.23;;;;;;;8.20;62.46;100199.84;5053946;28;20554;-85
2022/03/26 08:21:44;;;;;;;37.65;15.70;;;;;;;8.26;61.85;100198.41;5053859;28;20065;-86
2022/03/26 08:24:12;;;;;;;36.05;14.98;;;;;;;8.46;61.96;100193.84;5052822;28;20488;-85
2022/03/26 08:26:39;;;;;;;28.67;14.40;;;;;;;8.63;61.20;100203.09;5067681;28;20052;-86
2022/03/26 08:29:06;;;;;;;30.48;15.35;;;;;;;8.54;60.28;100191.28;5073923;28;20052;-86
2022/03/26 08:31:33;;;;;;;34.13;14.52;;;;;;;8.66;59.05;100206.34;5071002;28;20055;-85
2022/03/26 08:34:01;;;;;;;29.00;13.77;;;;;;;8.76;59.44;100200.03;5073368;28;20053;-86
2022/03/26 08:36:30;;;;;;;31.10;15.60;;;;;;;8.89;58.23;100205.16;5072146;28;20057;-85
2022/03/26 08:38:57;;;;;;;38.65;14.70;;;;;;;8.96;57.52;100184.56;5057258;28;20114;-86
2022/03/26 08:41:24;;;;;;;37.47;16.63;;;;;;;9.17;57.12;100193.31;5073333;28;20044;-85
2022/03/26 08:43:52;;;;;;;31.70;15.10;;;;;;;9.14;55.48;100188.19;5059237;28;20052;-85
2022/03/26 08:46:19;;;;;;;31.52;14.65;;;;;;;9.26;56.91;100194.28;5056155;28;20136;-85
2022/03/26 08:48:46;;;;;;;33.90;15.63;;;;;;;9.39;57.24;100193.91;5056881;28;20053;-86
2022/03/26 08:51:12;;;;;;;33.33;14.73;;;;;;;9.46;55.38;100196.88;5055865;28;20057;-85
2022/03/26 08:53:41;;;;;;;37.58;16.20;;;;;;;9.64;55.88;100205.03;5074044;28;20389;-86
2022/03/26 08:56:08;;;;;;;34.10;16.85;;;;;;;9.78;55.17;100198.22;5058567;28;20079;-86
2022/03/26 08:58:36;;;;;;;33.88;16.33;;;;;;;9.74;54.10;100186.81;5071692;28;20135;-86
2022/03/26 09:01:04;;;;;;;32.50;15.23;;;;;;;9.72;53.10;100176.09;5075496;28;20434;-86
2022/03/26 09:03:30;;;;;;;35.15;14.77;;;;;;;9.92;54.12;100189.50;5058614;28;20095;-86
2022/03/26 09:05:57;;;;;;;33.92;15.48;;;;;;;10.05;52.66;100187.25;5055493;28;20718;-86
2022/03/26 09:08:24;;;;;;;36.22;15.50;;;;;;;10.28;52.87;100200.34;5069686;28;20115;-86
2022/03/26 09:10:53;;;;;;;35.08;16.80;;;;;;;10.47;52.03;100207.50;5077043;28;20052;-86
2022/03/26 09:13:20;;;;;;;34.63;15.68;;;;;;;10.48;51.30;100200.19;5073451;28;20429;-85
2022/03/26 09:15:46;;;;;;;34.65;15.75;;;;;;;10.57;52.92;100191.94;5075175;28;20511;-86
2022/03/26 09:18:13;;;;;;;43.03;16.33;;;;;;;10.61;52.82;100190.63;5075381;28;20059;-86
2022/03/26 09:20:40;;;;;;;35.30;17.63;;;;;;;10.78;54.11;100190.72;5075289;28;20135;-85
2022/03/26 09:23:07;;;;;;;43.25;17.13;;;;;;;10.82;51.41;100183.94;5075027;28;20051;-85
2022/03/26 09:25:35;;;;;;;35.00;17.15;;;;;;;10.85;50.50;100180.03;5057924;28;20053;-85
2022/03/26 09:28:04;;;;;;;40.25;16.10;;;;;;;10.95;50.84;100169.91;5057098;28;20098;-87
2022/03/26 09:30:32;;;;;;;38.05;16.30;;;;;;;11.08;49.18;100170.31;5069777;28;20045;-85
2022/03/26 09:33:00;;;;;;;39.10;16.35;;;;;;;11.14;49.77;100157.88;5073039;28;20072;-85
2022/03/26 09:35:30;;;;;;;38.55;16.63;;;;;;;11.32;49.70;100177.69;5069190;28;20053;-85
2022/03/26 09:37:57;;;;;;;39.45;18.15;;;;;;;11.49;52.04;100167.69;5058509;28;20040;-85
2022/03/26 09:40:25;;;;;;;40.75;18.40;;;;;;;11.72;48.98;100164.34;5073415;28;20048;-85
2022/03/26 09:42:58;;;;;;;42.33;17.50;;;;;;;12.06;48.01;100184.31;5070880;28;20094;-85
2022/03/26 09:45:30;;;;;;;44.33;18.10;;;;;;;12.20;44.37;100168.16;5064554;28;20503;-84
2022/03/26 09:47:57;;;;;;;41.72;18.17;;;;;;;12.61;45.34;100160.94;5058070;28;20110;-85
2022/03/26 09:50:23;;;;;;;39.17;15.88;;;;;;;12.98;40.62;100157.59;5054150;28;20498;-85
2022/03/26 09:52:50;;;;;;;32.35;16.52;;;;;;;13.26;40.43;100168.91;5052074;28;20099;-85
2022/03/26 09:55:21;;;;;;;36.75;15.45;;;;;;;13.23;38.10;100150.16;5054098;28;20105;-85
2022/03/26 09:57:49;;;;;;;32.53;15.05;;;;;;;13.50;40.60;100169.00;5066395;28;20055;-85
2022/03/26 10:00:19;;;;;;;35.22;14.95;;;;;;;13.54;37.38;100165.72;5066917;28;20064;-85
2022/03/26 10:02:47;;;;;;;32.65;15.27;;;;;;;13.68;37.13;100165.97;5071728;28;20048;-85
2022/03/26 10:05:18;;;;;;;30.30;13.77;;;;;;;13.86;36.63;100165.69;5071280;28;20052;-85
2022/03/26 10:07:47;;;;;;;28.35;14.13;;;;;;;13.98;37.35;100167.84;5053866;28;20168;-84
2022/03/26 10:10:22;;;;;;;29.50;13.77;;;;;;;14.06;37.63;100150.50;5053823;28;20057;-85
2022/03/26 10:12:51;;;;;;;35.95;14.20;;;;;;;14.16;35.79;100167.47;5072329;28;20071;-85
2022/03/26 10:15:18;;;;;;;28.13;14.40;;;;;;;14.04;35.85;100144.34;5072023;28;20048;-85
2022/03/26 10:17:46;;;;;;;25.48;14.15;;;;;;;14.13;35.56;100154.19;5064436;28;20067;-85
2022/03/26 10:20:15;;;;;;;30.60;15.50;;;;;;;14.14;35.89;100135.91;5071110;28;20495;-85
2022/03/26 10:22:43;;;;;;;41.45;15.45;;;;;;;14.22;36.01;100130.34;5070870;28;20052;-84
2022/03/26 10:25:12;;;;;;;32.05;14.48;;;;;;;14.52;35.53;100155.03;5072442;28;20103;-84
2022/03/26 10:27:40;;;;;;;30.00;16.05;;;;;;;14.58;34.57;100150.72;5067182;28;20136;-84
2022/03/26 10:30:08;;;;;;;31.08;14.60;;;;;;;14.62;35.81;100141.97;5071890;28;20052;-84
2022/03/26 10:32:41;;;;;;;33.90;16.27;;;;;;;14.55;34.53;100140.13;5053500;28;20464;-85
2022/03/26 10:35:16;;;;;;;30.33;14.90;;;;;;;14.71;35.54;100144.59;5063684;28;20040;-85
2022/03/26 10:37:47;;;;;;;32.72;15.73;;;;;;;14.76;36.14;100143.00;5070820;28;20079;-85
2022/03/26 10:40:20;;;;;;;32.20;14.30;;;;;;;14.83;34.43;100123.97;5063631;28;20051;-85
2022/03/26 10:42:53;;;;;;;44.65;15.00;;;;;;;14.89;33.51;100123.19;5067182;28;20052;-86
2022/03/26 10:45:20;;;;;;;32.20;15.85;;;;;;;14.98;35.51;100115.69;5071586;28;20491;-84
2022/03/26 10:47:49;;;;;;;32.30;14.43;;;;;;;15.30;36.01;100141.81;5062460;28;20626;-84
2022/03/26 10:50:17;;;;;;;27.73;14.73;;;;;;;15.27;35.45;100114.81;5071679;28;20106;-85
2022/03/26 10:52:43;;;;;;;32.42;17.02;;;;;;;15.32;34.49;100120.56;5069633;28;20055;-85
2022/03/26 10:55:14;;;;;;;36.63;16.23;;;;;;;15.26;34.15;100113.13;5071606;28;20048;-85
2022/03/26 10:57:44;;;;;;;30.20;15.48;;;;;;;15.27;32.18;100122.19;5070880;28;20151;-86
2022/03/26 11:00:11;;;;;;;28.05;14.88;;;;;;;15.40;34.44;100125.06;5070799;28;20048;-86
2022/03/26 11:02:38;;;;;;;27.90;15.15;;;;;;;15.38;32.99;100119.78;5069261;28;20052;-84
2022/03/26 11:05:06;;;;;;;32.50;14.73;;;;;;;15.45;32.65;100119.88;5070815;28;20045;-83
2022/03/26 11:07:37;;;;;;;28.15;15.48;;;;;;;15.60;34.54;100124.44;5062938;28;20044;-85
2022/03/26 11:10:05;;;;;;;31.73;16.35;;;;;;;15.71;32.94;100122.03;5071602;28;20068;-85
2022/03/26 11:12:33;;;;;;;35.08;16.30;;;;;;;15.80;32.62;100127.44;5058610;28;20412;-85
2022/03/26 11:15:02;;;;;;;24.88;13.85;;;;;;;15.83;32.20;100118.81;5051216;28;20064;-85
2022/03/26 11:17:40;;;;;;;26.67;14.32;;;;;;;15.77;32.43;100116.84;5058562;28;20087;-85
2022/03/26 11:20:18;;;;;;;31.33;15.25;;;;;;;15.89;34.08;100112.56;5068458;28;20480;-83
2022/03/26 11:23:01;;;;;;;28.50;15.60;;;;;;;15.89;31.96;100102.44;5070087;28;20040;-84